Time;durP1;ratioP1;P1;durP2;ratioP2;P2;SDS_P1;SDS_P2;PMS_P1;PMS_P2;Temp;Humidity;BMP_temperature;BMP_pressure;BME280_temperature;BME280_humidity;BME280_pressure;Samples;Min_cycle;Max_cycle;Signal;HPM_P1;HPM_P2
2023/01/15 00:01:01;;;;;;;30.13;20.77;;;;;;;-142.25;100.00;58004.16;5022115;28;20561;-66
2023/01/15 00:03:27;;;;;;;24.83;20.00;;;;;;;-142.25;100.00;58004.16;5025494;28;20049;-70
2023/01/15 00:05:53;;;;;;;31.50;22.57;;;;;;;-142.25;100.00;58004.16;5018323;28;20046;-70
2023/01/15 00:08:18;;;;;;;29.57;22.40;;;;;;;-142.25;100.00;58004.16;5024102;28;20048;-70
2023/01/15 00:10:44;;;;;;;20.77;16.67;;;;;;;-142.25;100.00;58004.16;5022574;28;20451;-69
2023/01/15 00:13:10;;;;;;;19.33;14.20;;;;;;;-142.25;100.00;58004.16;5018521;28;20770;-69
2023/01/15 00:15:38;;;;;;;18.87;15.13;;;;;;;-142.25;100.00;58004.16;5020651;28;20035;-69
2023/01/15 00:18:04;;;;;;;18.77;11.70;;;;;;;-142.25;100.00;58004.16;5024667;28;20045;-68
2023/01/15 00:20:30;;;;;;;19.63;14.63;;;;;;;-142.25;100.00;58004.16;5041913;28;20098;-69
2023/01/15 00:22:56;;;;;;;15.73;13.47;;;;;;;-142.25;100.00;58004.16;5041175;28;20040;-71
2023/01/15 00:28:06;;;;;;;17.03;15.30;;;;;;;-142.25;100.00;58004.16;5042359;28;20044;-69
2023/01/15 00:30:31;;;;;;;18.17;14.70;;;;;;;-142.25;100.00;58004.16;5045265;28;20052;-69
2023/01/15 00:32:58;;;;;;;19.30;17.10;;;;;;;-142.25;100.00;58004.16;5030588;28;20040;-69
2023/01/15 00:35:25;;;;;;;23.40;21.30;;;;;;;-142.25;100.00;58004.16;5047176;28;20128;-69
2023/01/15 00:37:51;;;;;;;20.97;19.07;;;;;;;-142.25;100.00;58004.16;5044795;28;20056;-69
2023/01/15 00:40:19;;;;;;;17.97;16.53;;;;;;;-142.25;100.00;58004.16;5046067;28;20488;-69
2023/01/15 00:42:45;;;;;;;22.40;20.13;;;;;;;-142.25;100.00;58004.16;5028726;28;20049;-69
2023/01/15 00:45:11;;;;;;;24.07;22.40;;;;;;;-142.25;100.00;58004.16;5032635;28;20056;-68
2023/01/15 00:47:42;;;;;;;24.63;23.00;;;;;;;-142.25;100.00;58004.16;5047489;28;20108;-68
2023/01/15 00:50:12;;;;;;;23.57;21.70;;;;;;;-142.25;100.00;58004.16;5033189;28;20041;-68
2023/01/15 00:52:38;;;;;;;26.23;24.57;;;;;;;-142.25;100.00;58004.16;5020982;28;20094;-68
2023/01/15 00:55:04;;;;;;;28.63;26.27;;;;;;;-142.25;100.00;58004.16;5031879;28;20057;-69
2023/01/15 00:57:29;;;;;;;30.27;28.33;;;;;;;-142.25;100.00;58004.16;5042782;28;20042;-68
2023/01/15 00:59:55;;;;;;;37.43;35.07;;;;;;;-142.25;100.00;58004.16;5027457;28;20426;-68
2023/01/15 01:02:21;;;;;;;42.47;40.17;;;;;;;-142.25;100.00;58004.16;5030820;28;20033;-68
2023/01/15 01:04:46;;;;;;;47.53;44.80;;;;;;;-142.25;100.00;58004.16;5031108;28;20065;-69
2023/01/15 01:07:14;;;;;;;64.53;60.60;;;;;;;-142.25;100.00;58004.16;5046249;28;20041;-68
2023/01/15 01:09:41;;;;;;;69.17;64.77;;;;;;;-142.25;100.00;58004.16;5036136;28;20047;-68
2023/01/15 01:12:06;;;;;;;68.53;64.47;;;;;;;-142.25;100.00;58004.16;5030197;28;20068;-69
2023/01/15 01:14:33;;;;;;;56.20;52.97;;;;;;;-142.25;100.00;58004.16;5017612;28;20045;-69
2023/01/15 01:16:59;;;;;;;47.83;45.17;;;;;;;-142.25;100.00;58004.16;5047607;28;20037;-69
2023/01/15 01:19:25;;;;;;;58.47;54.90;;;;;;;-142.25;100.00;58004.16;5042918;28;20069;-69
2023/01/15 01:21:51;;;;;;;62.33;58.60;;;;;;;-142.25;100.00;58004.16;5047430;28;20116;-69
2023/01/15 01:24:20;;;;;;;55.57;52.20;;;;;;;-142.25;100.00;58004.16;5045688;28;20694;-69
2023/01/15 01:26:47;;;;;;;54.50;51.30;;;;;;;-142.25;100.00;58004.16;5046060;28;20049;-68
2023/01/15 01:29:18;;;;;;;83.20;77.93;;;;;;;-142.25;100.00;58004.16;5042932;28;20045;-69
2023/01/15 01:31:45;;;;;;;54.70;51.43;;;;;;;-142.25;100.00;58004.16;5047664;28;20037;-68
2023/01/15 01:34:12;;;;;;;66.93;62.73;;;;;;;-142.25;100.00;58004.16;5027172;28;20051;-68
2023/01/15 01:36:39;;;;;;;66.60;62.83;;;;;;;-142.25;100.00;58004.16;5046767;28;20124;-68
2023/01/15 01:39:07;;;;;;;45.97;43.40;;;;;;;-142.25;100.00;58004.16;5043385;28;20033;-68
2023/01/15 01:41:33;;;;;;;60.83;57.40;;;;;;;-142.25;100.00;58004.16;5026937;28;20048;-68
2023/01/15 01:44:03;;;;;;;48.57;45.67;;;;;;;-142.25;100.00;58004.16;5027588;28;20055;-67
2023/01/15 01:46:31;;;;;;;34.23;32.27;;;;;;;-142.25;100.00;58004.16;5042724;28;20037;-69
2023/01/15 01:49:07;;;;;;;43.80;41.07;;;;;;;-142.25;100.00;58004.16;5043467;28;20048;-69
2023/01/15 01:51:46;;;;;;;46.63;44.03;;;;;;;-142.25;100.00;58004.16;5047494;28;20041;-68
2023/01/15 01:54:15;;;;;;;28.27;26.53;;;;;;;-142.25;100.00;58004.16;5030849;28;20049;-68
2023/01/15 01:56:42;;;;;;;22.03;20.53;;;;;;;-142.25;100.00;58004.16;5011476;28;20136;-69
2023/01/15 01:59:08;;;;;;;17.10;15.40;;;;;;;-142.25;100.00;58004.16;5013858;28;20441;-68
2023/01/15 02:01:35;;;;;;;23.90;22.43;;;;;;;-142.25;100.00;58004.16;5025592;28;20041;-67
2023/01/15 02:04:01;;;;;;;25.10;23.10;;;;;;;-142.25;100.00;58004.16;5027330;28;20064;-69
2023/01/15 02:06:28;;;;;;;38.53;36.47;;;;;;;-142.25;100.00;58004.16;5030583;28;20064;-69
2023/01/15 02:08:53;;;;;;;46.23;43.43;;;;;;;-142.25;100.00;58004.16;5023666;28;20063;-68
2023/01/15 02:11:22;;;;;;;30.87;28.80;;;;;;;-142.25;100.00;58004.16;5025641;28;20136;-69
2023/01/15 02:14:18;;;;;;;24.90;23.13;;;;;;;-142.25;100.00;58004.16;5041721;28;20510;-68
2023/01/15 02:17:26;;;;;;;38.80;36.47;;;;;;;-142.25;100.00;58004.16;5018759;28;20140;-70
2023/01/15 02:20:41;;;;;;;44.78;42.20;;;;;;;-142.25;100.00;58004.16;5025615;28;20080;-68
2023/01/15 02:23:34;;;;;;;45.60;43.13;;;;;;;-142.25;100.00;58004.16;4947786;28;20491;-69
2023/01/15 02:26:25;;;;;;;42.80;40.17;;;;;;;-142.25;100.00;58004.16;4948635;28;20178;-69
2023/01/15 02:28:55;;;;;;;82.23;76.97;;;;;;;-142.25;100.00;58004.16;4932421;28;20049;-69
2023/01/15 02:31:35;;;;;;;43.87;41.37;;;;;;;-142.25;100.00;58004.16;4948911;28;20043;-67
2023/01/15 02:34:12;;;;;;;33.57;31.60;;;;;;;-142.25;100.00;58004.16;4931995;28;20278;-69
2023/01/15 02:36:48;;;;;;;37.90;35.87;;;;;;;-142.25;100.00;58004.16;4932572;28;20500;-69
2023/01/15 02:39:24;;;;;;;19.60;18.23;;;;;;;-142.25;100.00;58004.16;4932571;28;20078;-69
2023/01/15 02:41:53;;;;;;;46.47;43.67;;;;;;;-142.25;100.00;58004.16;4931980;28;20043;-68
2023/01/15 02:44:22;;;;;;;24.17;22.43;;;;;;;-142.25;100.00;58004.16;4933333;28;20585;-68
2023/01/15 02:46:54;;;;;;;26.03;24.27;;;;;;;-142.25;100.00;58004.16;4932613;28;20058;-70
2023/01/15 02:49:22;;;;;;;26.77;24.77;;;;;;;-142.25;100.00;58004.16;4944104;28;20097;-69
2023/01/15 02:52:07;;;;;;;52.20;48.50;;;;;;;-142.25;100.00;58004.16;4947855;28;20113;-68
2023/01/15 02:54:40;;;;;;;;;;;;;;;-142.25;100.00;58004.16;5014621;28;20060;-68
2023/01/15 02:57:10;;;;;;;37.57;34.83;;;;;;;-142.25;100.00;58004.16;5042464;28;19931;-68
2023/01/15 02:59:41;;;;;;;21.60;19.77;;;;;;;-142.25;100.00;58004.16;5014261;28;20061;-68
2023/01/15 03:02:19;;;;;;;16.90;15.33;;;;;;;-142.25;100.00;58004.16;5045004;28;20037;-68
2023/01/15 03:04:54;;;;;;;14.23;11.27;;;;;;;-142.25;100.00;58004.16;5025510;28;20375;-68
2023/01/15 03:07:49;;;;;;;18.35;16.70;;;;;;;-142.25;100.00;58004.16;5040013;28;20119;-70
2023/01/15 03:10:16;;;;;;;14.97;13.47;;;;;;;-142.25;100.00;58004.16;5028279;28;20041;-68
2023/01/15 03:13:04;;;;;;;12.80;10.97;;;;;;;-142.25;100.00;58004.16;5044135;28;20045;-69
2023/01/15 03:18:49;;;;;;;7.00;6.23;;;;;;;-142.25;100.00;58004.16;5025360;28;20054;-69
2023/01/15 03:21:21;;;;;;;10.13;5.00;;;;;;;-142.25;100.00;58004.16;5023620;28;20041;-69
2023/01/15 03:23:52;;;;;;;8.73;5.30;;;;;;;-142.25;100.00;58004.16;5021477;28;20164;-68
2023/01/15 03:26:18;;;;;;;8.97;6.57;;;;;;;-142.25;100.00;58004.16;5027719;28;20136;-69
2023/01/15 03:28:46;;;;;;;7.23;5.40;;;;;;;-142.25;100.00;58004.16;5027587;28;20944;-67
2023/01/15 03:31:13;;;;;;;4.97;4.33;;;;;;;-142.25;100.00;58004.16;5023156;28;20038;-68
2023/01/15 03:33:40;;;;;;;6.77;4.83;;;;;;;-142.25;100.00;58004.16;5027531;28;20056;-69
2023/01/15 03:36:11;;;;;;;5.93;4.30;;;;;;;-142.25;100.00;58004.16;5026619;28;20143;-69
2023/01/15 03:38:41;;;;;;;7.87;4.63;;;;;;;-142.25;100.00;58004.16;5027569;28;20048;-69
2023/01/15 03:41:25;;;;;;;7.97;5.33;;;;;;;-142.25;100.00;58004.16;5026847;28;20056;-69
2023/01/15 03:44:09;;;;;;;7.13;4.73;;;;;;;-142.25;100.00;58004.16;5021760;28;20033;-68
2023/01/15 03:46:41;;;;;;;5.93;4.73;;;;;;;-142.25;100.00;58004.16;5020788;28;20146;-69
2023/01/15 03:49:36;;;;;;;8.70;5.57;;;;;;;-142.25;100.00;58004.16;5022560;28;20041;-68
2023/01/15 03:52:29;;;;;;;17.10;9.53;;;;;;;-142.25;100.00;58004.16;5019416;28;20057;-70
2023/01/15 03:55:14;;;;;;;6.75;5.35;;;;;;;-142.25;100.00;58004.16;5012404;28;20046;-68
2023/01/15 03:58:07;;;;;;;7.63;5.43;;;;;;;-142.25;100.00;58004.16;5019685;28;20621;-70
2023/01/15 04:00:49;;;;;;;7.87;4.97;;;;;;;-142.25;100.00;58004.16;5026663;28;20041;-70
2023/01/15 04:03:18;;;;;;;6.23;4.37;;;;;;;-142.25;100.00;58004.16;5022761;28;20052;-70
2023/01/15 04:05:46;;;;;;;5.30;4.30;;;;;;;-142.25;100.00;58004.16;5023686;28;20045;-70
2023/01/15 04:08:14;;;;;;;10.07;7.00;;;;;;;-142.25;100.00;58004.16;5006488;28;20053;-70
2023/01/15 04:10:54;;;;;;;8.37;4.93;;;;;;;-142.25;100.00;58004.16;5027279;28;20079;-69
2023/01/15 04:13:22;;;;;;;10.83;6.63;;;;;;;-142.25;100.00;58004.16;5026463;28;20128;-68
2023/01/15 04:15:49;;;;;;;7.10;5.47;;;;;;;-142.25;100.00;58004.16;5029729;28;20051;-70
2023/01/15 04:18:16;;;;;;;8.03;5.73;;;;;;;-142.25;100.00;58004.16;5027810;28;20057;-68
2023/01/15 04:20:42;;;;;;;10.70;5.47;;;;;;;-142.25;100.00;58004.16;5031617;28;20104;-69
2023/01/15 04:23:08;;;;;;;8.57;5.17;;;;;;;-142.25;100.00;58004.16;5031716;28;20402;-68
2023/01/15 04:25:34;;;;;;;9.23;5.47;;;;;;;-142.25;100.00;58004.16;5028193;28;20400;-69
2023/01/15 04:27:59;;;;;;;7.47;4.83;;;;;;;-142.25;100.00;58004.16;5028329;28;20045;-68
2023/01/15 04:30:25;;;;;;;8.23;5.73;;;;;;;-142.25;100.00;58004.16;5026825;28;20041;-68
2023/01/15 04:32:51;;;;;;;9.17;6.03;;;;;;;-142.25;100.00;58004.16;5023765;28;20038;-68
2023/01/15 04:35:18;;;;;;;9.13;5.17;;;;;;;-142.25;100.00;58004.16;5024426;28;20417;-70
2023/01/15 04:37:44;;;;;;;16.07;7.33;;;;;;;-142.25;100.00;58004.16;5026302;28;20133;-69
2023/01/15 04:45:45;;;;;;;5.07;4.30;;;;;;;-142.25;100.00;58004.16;4985478;28;20138;-69
2023/01/15 04:48:11;;;;;;;9.17;4.87;;;;;;;-142.25;100.00;58004.16;4984531;28;20099;-68
2023/01/15 04:50:37;;;;;;;6.23;4.87;;;;;;;-142.25;100.00;58004.16;4984360;28;20137;-68
2023/01/15 04:53:03;;;;;;;12.03;6.10;;;;;;;-142.25;100.00;58004.16;4984262;28;20062;-69
2023/01/15 04:55:29;;;;;;;6.67;4.87;;;;;;;-142.25;100.00;58004.16;4987470;28;20134;-68
2023/01/15 04:57:55;;;;;;;6.50;4.83;;;;;;;-142.25;100.00;58004.16;4986404;28;20054;-68
2023/01/15 05:00:22;;;;;;;6.80;5.50;;;;;;;-142.25;100.00;58004.16;4987241;28;20093;-70
2023/01/15 05:02:48;;;;;;;6.57;5.23;;;;;;;-142.25;100.00;58004.16;4986965;28;20042;-70
2023/01/15 05:05:14;;;;;;;8.13;6.00;;;;;;;-142.25;100.00;58004.16;4985442;28;20129;-70
2023/01/15 05:07:40;;;;;;;7.77;5.40;;;;;;;-142.25;100.00;58004.16;4984139;28;20626;-70
2023/01/15 05:10:05;;;;;;;9.40;6.07;;;;;;;-142.25;100.00;58004.16;4986219;28;20452;-70
2023/01/15 05:12:31;;;;;;;8.30;5.50;;;;;;;-142.25;100.00;58004.16;4986608;28;20073;-71
2023/01/15 05:14:57;;;;;;;6.80;4.20;;;;;;;-142.25;100.00;58004.16;4984574;28;20414;-70
2023/01/15 05:17:22;;;;;;;6.23;3.60;;;;;;;-142.25;100.00;58004.16;4985179;28;20561;-71
2023/01/15 05:19:48;;;;;;;5.67;4.60;;;;;;;-142.25;100.00;58004.16;5000223;28;20048;-68
2023/01/15 05:22:14;;;;;;;7.03;4.93;;;;;;;-142.25;100.00;58004.16;5026657;28;20041;-68
2023/01/15 05:24:39;;;;;;;6.93;4.77;;;;;;;-142.25;100.00;58004.16;5023736;28;20049;-71
2023/01/15 05:27:05;;;;;;;6.10;4.33;;;;;;;-142.25;100.00;58004.16;5029422;28;20042;-69
2023/01/15 05:29:31;;;;;;;5.07;3.40;;;;;;;-142.25;100.00;58004.16;5028890;28;20147;-70
2023/01/15 05:31:56;;;;;;;6.13;4.23;;;;;;;-142.25;100.00;58004.16;5024546;28;20046;-69
2023/01/15 05:34:22;;;;;;;6.07;4.17;;;;;;;-142.25;100.00;58004.16;5026941;28;20057;-69
2023/01/15 05:36:48;;;;;;;9.27;5.57;;;;;;;-142.25;100.00;58004.16;5025422;28;20149;-69
2023/01/15 05:39:13;;;;;;;12.83;5.27;;;;;;;-142.25;100.00;58004.16;5027631;28;20588;-68
2023/01/15 05:41:50;;;;;;;7.90;5.47;;;;;;;-142.25;100.00;58004.16;5025722;28;20042;-70
2023/01/15 05:44:24;;;;;;;8.10;5.30;;;;;;;-142.25;100.00;58004.16;5021376;28;20510;-68
2023/01/15 05:46:52;;;;;;;11.27;5.77;;;;;;;-142.25;100.00;58004.16;5021633;28;20393;-70
2023/01/15 05:49:21;;;;;;;9.93;6.37;;;;;;;-142.25;100.00;58004.16;5023500;28;20060;-70
2023/01/15 05:51:47;;;;;;;8.43;6.33;;;;;;;-142.25;100.00;58004.16;5025586;28;20033;-70
2023/01/15 05:54:16;;;;;;;9.43;6.43;;;;;;;-142.25;100.00;58004.16;5024563;28;20057;-70
2023/01/15 05:56:44;;;;;;;10.53;6.47;;;;;;;-142.25;100.00;58004.16;5026838;28;20036;-70
2023/01/15 05:59:11;;;;;;;12.27;8.70;;;;;;;-142.25;100.00;58004.16;5024865;28;20045;-68
2023/01/15 06:01:37;;;;;;;15.67;14.10;;;;;;;-142.25;100.00;58004.16;5022761;28;20121;-69
2023/01/15 06:04:04;;;;;;;24.57;22.80;;;;;;;-142.25;100.00;58004.16;5025259;28;20373;-68
2023/01/15 06:06:30;;;;;;;84.47;78.27;;;;;;;-142.25;100.00;58004.16;5021987;28;20045;-69
2023/01/15 06:08:56;;;;;;;94.33;87.10;;;;;;;-142.25;100.00;58004.16;5020096;28;20057;-69
2023/01/15 06:11:23;;;;;;;100.47;92.13;;;;;;;-142.25;100.00;58004.16;5011242;28;20947;-69
2023/01/15 06:13:49;;;;;;;113.20;103.90;;;;;;;-142.25;100.00;58004.16;5026961;28;20042;-69
2023/01/15 06:16:14;;;;;;;100.27;91.53;;;;;;;-142.25;100.00;58004.16;5023718;28;20068;-69
2023/01/15 06:18:41;;;;;;;89.43;82.70;;;;;;;-142.25;100.00;58004.16;5025894;28;20140;-69
2023/01/15 06:21:09;;;;;;;82.43;76.13;;;;;;;-142.25;100.00;58004.16;5022945;28;20238;-69
2023/01/15 06:23:36;;;;;;;99.77;91.90;;;;;;;-142.25;100.00;58004.16;5025822;28;20049;-70
2023/01/15 06:26:11;;;;;;;104.10;95.40;;;;;;;-142.25;100.00;58004.16;5022354;28;20042;-69
2023/01/15 06:28:37;;;;;;;85.88;79.75;;;;;;;-142.25;100.00;58004.16;5022974;28;20045;-69
2023/01/15 06:31:07;;;;;;;104.00;95.27;;;;;;;-142.25;100.00;58004.16;4994323;28;20046;-68
2023/01/15 06:33:34;;;;;;;90.07;83.43;;;;;;;-142.25;100.00;58004.16;5023765;28;20132;-68
2023/01/15 06:36:07;;;;;;;90.87;83.97;;;;;;;-142.25;100.00;58004.16;5021379;28;20586;-69
2023/01/15 06:38:33;;;;;;;87.63;81.13;;;;;;;-142.25;100.00;58004.16;5024032;28;20044;-69
2023/01/15 06:41:01;;;;;;;93.70;87.03;;;;;;;-142.25;100.00;58004.16;5021969;28;20056;-69
2023/01/15 06:48:56;;;;;;;47.00;44.10;;;;;;;-142.25;100.00;58004.16;5023464;28;20042;-68
2023/01/15 06:51:21;;;;;;;71.77;66.77;;;;;;;-142.25;100.00;58004.16;5023581;28;20076;-71
2023/01/15 06:53:47;;;;;;;63.67;59.60;;;;;;;-142.25;100.00;58004.16;5014743;28;20064;-71
2023/01/15 06:56:13;;;;;;;65.17;60.87;;;;;;;-142.25;100.00;58004.16;5016857;28;20041;-70
2023/01/15 06:58:43;;;;;;;64.47;60.27;;;;;;;-142.25;100.00;58004.16;5015835;28;20132;-71
2023/01/15 07:01:14;;;;;;;54.60;51.20;;;;;;;-142.25;100.00;58004.16;5018060;28;20052;-71
2023/01/15 07:03:40;;;;;;;55.97;52.47;;;;;;;-142.25;100.00;58004.16;5016782;28;20045;-71
2023/01/15 07:06:08;;;;;;;61.83;57.73;;;;;;;-142.25;100.00;58004.16;5018578;28;20038;-72
2023/01/15 07:08:34;;;;;;;37.20;34.87;;;;;;;-142.25;100.00;58004.16;5021359;28;20119;-71
2023/01/15 07:11:09;;;;;;;40.37;37.77;;;;;;;-142.25;100.00;58004.16;5022285;28;20041;-72
2023/01/15 07:13:35;;;;;;;41.87;38.73;;;;;;;-142.25;100.00;58004.16;5020196;28;20045;-71
2023/01/15 07:16:03;;;;;;;52.10;48.57;;;;;;;-142.25;100.00;58004.16;5021281;28;20345;-72
2023/01/15 07:18:30;;;;;;;49.43;46.27;;;;;;;-142.25;100.00;58004.16;5031313;28;20116;-72
2023/01/15 07:20:57;;;;;;;32.43;29.73;;;;;;;-142.25;100.00;58004.16;5044841;28;20576;-71
2023/01/15 07:23:24;;;;;;;37.07;34.40;;;;;;;-142.25;100.00;58004.16;5043601;28;20104;-72
2023/01/15 07:25:54;;;;;;;24.40;22.60;;;;;;;-142.25;100.00;58004.16;5043287;28;20055;-70
2023/01/15 07:28:21;;;;;;;20.17;18.17;;;;;;;-142.25;100.00;58004.16;5041960;28;20054;-70
2023/01/15 07:30:47;;;;;;;20.80;18.97;;;;;;;-142.25;100.00;58004.16;5040912;28;20068;-70
2023/01/15 07:33:12;;;;;;;19.80;17.87;;;;;;;-142.25;100.00;58004.16;5044904;28;20029;-72
2023/01/15 07:35:38;;;;;;;13.83;12.67;;;;;;;-142.25;100.00;58004.16;5030410;28;20079;-70
2023/01/15 07:38:04;;;;;;;17.47;15.70;;;;;;;-142.25;100.00;58004.16;5042060;28;20029;-70
2023/01/15 07:40:29;;;;;;;12.73;11.37;;;;;;;-142.25;100.00;58004.16;5042889;28;20575;-71
2023/01/15 07:51:09;;;;;;;13.20;9.70;;;;;;;-142.25;100.00;58004.16;5041058;28;20041;-69
2023/01/15 07:53:35;;;;;;;9.40;7.93;;;;;;;-142.25;100.00;58004.16;5040473;28;20041;-69
2023/01/15 07:56:01;;;;;;;12.60;7.70;;;;;;;-142.25;100.00;58004.16;5040605;28;20048;-69
2023/01/15 07:58:26;;;;;;;16.00;8.87;;;;;;;-142.25;100.00;58004.16;5038226;28;20573;-68
2023/01/15 08:00:52;;;;;;;8.97;7.20;;;;;;;-142.25;100.00;58004.16;5041306;28;20064;-68
2023/01/15 08:03:17;;;;;;;11.93;8.73;;;;;;;-142.25;100.00;58004.16;5040350;28;20041;-71
2023/01/15 08:05:43;;;;;;;12.10;8.20;;;;;;;-142.25;100.00;58004.16;5039623;28;20075;-72
2023/01/15 08:08:16;;;;;;;13.37;9.63;;;;;;;-142.25;100.00;58004.16;5038953;28;20037;-71
2023/01/15 08:16:11;;;;;;;15.23;9.93;;;;;;;-142.25;100.00;58004.16;5037126;28;20179;-72
2023/01/15 08:18:39;;;;;;;15.03;9.73;;;;;;;-142.25;100.00;58004.16;5035588;28;20053;-68
2023/01/15 08:21:05;;;;;;;16.40;11.47;;;;;;;-142.25;100.00;58004.16;5042556;28;20044;-70
2023/01/15 08:23:31;;;;;;;18.80;11.83;;;;;;;-142.25;100.00;58004.16;5018826;28;20040;-70
2023/01/15 08:26:00;;;;;;;18.07;12.30;;;;;;;-142.25;100.00;58004.16;5037746;28;20057;-70
2023/01/15 08:28:26;;;;;;;15.73;11.50;;;;;;;-142.25;100.00;58004.16;5044017;28;20521;-70
2023/01/15 08:30:52;;;;;;;12.63;10.53;;;;;;;-142.25;100.00;58004.16;5040892;28;20072;-70
2023/01/15 08:33:18;;;;;;;16.00;11.47;;;;;;;-142.25;100.00;58004.16;5041579;28;20047;-72
2023/01/15 08:35:43;;;;;;;12.17;8.90;;;;;;;-142.25;100.00;58004.16;5043706;28;20066;-69
2023/01/15 08:38:09;;;;;;;15.17;11.87;;;;;;;-142.25;100.00;58004.16;5040080;28;20052;-69
2023/01/15 08:40:57;;;;;;;15.07;11.73;;;;;;;-142.25;100.00;58004.16;5023421;28;20025;-71
2023/01/15 08:43:21;;;;;;;18.80;17.03;;;;;;;-142.25;100.00;58004.16;5042442;28;20125;-69
2023/01/15 08:45:47;;;;;;;13.33;11.73;;;;;;;-142.25;100.00;58004.16;5043738;28;20080;-69
2023/01/15 08:48:13;;;;;;;17.37;13.53;;;;;;;-142.25;100.00;58004.16;5018634;28;20676;-69
2023/01/15 08:50:38;;;;;;;13.63;10.50;;;;;;;-142.25;100.00;58004.16;5038577;28;20047;-72
2023/01/15 08:53:04;;;;;;;13.07;9.97;;;;;;;-142.25;100.00;58004.16;5042319;28;20053;-69
2023/01/15 08:55:31;;;;;;;15.93;12.13;;;;;;;-142.25;100.00;58004.16;5039593;28;20056;-71
2023/01/15 08:57:57;;;;;;;13.87;11.83;;;;;;;-142.25;100.00;58004.16;5023510;28;20554;-70
2023/01/15 09:00:23;;;;;;;13.60;10.00;;;;;;;-142.25;100.00;58004.16;5043423;28;20889;-70
2023/01/15 09:02:49;;;;;;;12.60;9.50;;;;;;;-142.25;100.00;58004.16;5043336;28;20053;-70
2023/01/15 09:05:15;;;;;;;12.73;8.73;;;;;;;-142.25;100.00;58004.16;5046765;28;20075;-71
2023/01/15 09:07:41;;;;;;;13.40;10.90;;;;;;;-142.25;100.00;58004.16;5030064;28;20108;-70
2023/01/15 09:10:07;;;;;;;14.27;10.97;;;;;;;-142.25;100.00;58004.16;5041251;28;20051;-71
2023/01/15 09:12:32;;;;;;;13.57;9.70;;;;;;;-142.25;100.00;58004.16;5025399;28;20052;-72
2023/01/15 09:15:00;;;;;;;12.47;9.87;;;;;;;-142.25;100.00;58004.16;5027109;28;20052;-69
2023/01/15 09:17:26;;;;;;;14.23;9.07;;;;;;;-142.25;100.00;58004.16;5049037;28;20541;-70
2023/01/15 09:19:52;;;;;;;12.63;7.47;;;;;;;-142.25;100.00;58004.16;5040404;28;20193;-70
2023/01/15 09:22:17;;;;;;;11.00;8.13;;;;;;;-142.25;100.00;58004.16;5041370;28;20059;-70
2023/01/15 09:24:43;;;;;;;12.87;8.97;;;;;;;-142.25;100.00;58004.16;5042819;28;20123;-67
2023/01/15 09:27:12;;;;;;;15.73;11.10;;;;;;;-142.25;100.00;58004.16;5040093;28;20094;-68
2023/01/15 09:29:38;;;;;;;10.23;6.83;;;;;;;-142.25;100.00;58004.16;5041199;28;20049;-69
2023/01/15 09:32:03;;;;;;;7.13;5.83;;;;;;;-142.25;100.00;58004.16;5043925;28;20491;-70
2023/01/15 09:34:29;;;;;;;9.70;6.73;;;;;;;-142.25;100.00;58004.16;5040895;28;20076;-70
2023/01/15 09:36:54;;;;;;;6.63;5.47;;;;;;;-142.25;100.00;58004.16;5037732;28;20487;-69
2023/01/15 09:39:20;;;;;;;10.53;6.43;;;;;;;-142.25;100.00;58004.16;5041649;28;20056;-68
2023/01/15 09:42:14;;;;;;;6.40;5.57;;;;;;;-142.25;100.00;58004.16;5044144;28;20586;-69
2023/01/15 09:45:03;;;;;;;10.27;6.63;;;;;;;-142.25;100.00;58004.16;5045568;28;20044;-68
2023/01/15 09:47:35;;;;;;;6.87;4.97;;;;;;;-142.25;100.00;58004.16;5044279;28;20037;-70
2023/01/15 09:50:28;;;;;;;9.17;5.87;;;;;;;-142.25;100.00;58004.16;5042147;28;20067;-69
2023/01/15 09:53:12;;;;;;;8.30;5.77;;;;;;;-142.25;100.00;58004.16;5043964;28;20091;-71
2023/01/15 09:55:58;;;;;;;8.90;6.93;;;;;;;-142.25;100.00;58004.16;5041148;28;20049;-70
2023/01/15 09:58:37;;;;;;;7.50;5.30;;;;;;;-142.25;100.00;58004.16;5040266;28;20053;-70
2023/01/15 10:01:05;;;;;;;7.47;5.77;;;;;;;-142.25;100.00;58004.16;5044817;28;20045;-70
2023/01/15 10:03:45;;;;;;;9.53;6.30;;;;;;;-142.25;100.00;58004.16;5043020;28;20069;-69
2023/01/15 10:06:27;;;;;;;7.97;5.73;;;;;;;-142.25;100.00;58004.16;5044283;28;20129;-69
2023/01/15 10:09:19;;;;;;;11.83;8.23;;;;;;;-142.25;100.00;58004.16;5041784;28;20045;-70
2023/01/15 10:14:57;;;;;;;7.90;5.53;;;;;;;-142.25;100.00;58004.16;5038001;28;20045;-71
2023/01/15 10:17:34;;;;;;;9.83;7.30;;;;;;;-142.25;100.00;58004.16;4973260;28;21088;-69
2023/01/15 10:20:00;;;;;;;28.53;14.80;;;;;;;-142.25;100.00;58004.16;5041657;28;20057;-69
2023/01/15 10:22:47;;;;;;;14.50;8.70;;;;;;;-142.25;100.00;58004.16;5045966;28;20122;-71
2023/01/15 10:25:17;;;;;;;10.63;6.50;;;;;;;-142.25;100.00;58004.16;5046178;28;20083;-69
2023/01/15 10:27:50;;;;;;;8.80;6.20;;;;;;;-142.25;100.00;58004.16;5044452;28;20064;-70
2023/01/15 10:31:02;;;;;;;9.30;7.17;;;;;;;-142.25;100.00;58004.16;5038798;28;20041;-70
2023/01/15 10:33:50;;;;;;;10.90;7.10;;;;;;;-142.25;100.00;58004.16;5022632;28;20495;-72
2023/01/15 10:36:27;;;;;;;8.97;5.57;;;;;;;-142.25;100.00;58004.16;5041357;28;20069;-71
2023/01/15 10:39:19;;;;;;;7.70;5.27;;;;;;;-142.25;100.00;58004.16;5043696;28;20471;-69
2023/01/15 10:42:15;;;;;;;9.47;5.10;;;;;;;-142.25;100.00;58004.16;5042227;28;20483;-68
2023/01/15 10:45:01;;;;;;;12.87;8.27;;;;;;;-142.25;100.00;58004.16;5029450;28;20054;-71
2023/01/15 10:47:35;;;;;;;10.00;7.27;;;;;;;-142.25;100.00;58004.16;5038471;28;20586;-72
2023/01/15 10:50:12;;;;;;;8.90;6.90;;;;;;;-142.25;100.00;58004.16;5039416;28;20775;-71
2023/01/15 10:52:42;;;;;;;7.90;6.33;;;;;;;-142.25;100.00;58004.16;5024271;28;20052;-71
2023/01/15 10:55:27;;;;;;;9.63;6.27;;;;;;;-142.25;100.00;58004.16;5044157;28;20041;-70
2023/01/15 10:58:03;;;;;;;11.07;8.30;;;;;;;-142.25;100.00;58004.16;5043507;28;20041;-71
2023/01/15 11:00:30;;;;;;;10.33;5.87;;;;;;;-142.25;100.00;58004.16;5043009;28;20091;-70
2023/01/15 11:03:13;;;;;;;9.73;6.37;;;;;;;-142.25;100.00;58004.16;5044310;28;20126;-71
2023/01/15 11:05:40;;;;;;;10.10;7.13;;;;;;;-142.25;100.00;58004.16;5038684;28;20438;-71
2023/01/15 11:08:14;;;;;;;7.93;5.20;;;;;;;-142.25;100.00;58004.16;5037519;28;20056;-71
2023/01/15 11:10:40;;;;;;;8.27;6.20;;;;;;;-142.25;100.00;58004.16;5023283;28;20052;-71
2023/01/15 11:21:51;;;;;;;9.87;7.10;;;;;;;-142.25;100.00;58004.16;5032196;28;20595;-71
2023/01/15 11:24:17;;;;;;;13.97;8.30;;;;;;;-142.25;100.00;58004.16;5039064;28;20164;-70
2023/01/15 11:26:52;;;;;;;8.80;5.63;;;;;;;-142.25;100.00;58004.16;5028508;28;20044;-71
2023/01/15 11:29:36;;;;;;;9.38;6.50;;;;;;;-142.25;100.00;58004.16;5041995;28;20044;-73
2023/01/15 11:32:02;;;;;;;9.07;7.23;;;;;;;-142.25;100.00;58004.16;5040555;28;20642;-72
2023/01/15 11:34:27;;;;;;;10.23;7.23;;;;;;;-142.25;100.00;58004.16;5037247;28;21043;-71
2023/01/15 11:37:05;;;;;;;9.17;7.27;;;;;;;-142.25;100.00;58004.16;5042936;28;20052;-70
2023/01/15 11:39:31;;;;;;;12.10;8.10;;;;;;;-142.25;100.00;58004.16;5028919;28;20049;-71
2023/01/15 11:51:08;;;;;;;17.77;10.60;;;;;;;-142.25;100.00;58004.16;5028773;28;20041;-72
2023/01/15 11:53:40;;;;;;;17.90;9.43;;;;;;;-142.25;100.00;58004.16;5031752;28;20485;-72
2023/01/15 11:56:10;;;;;;;11.37;7.40;;;;;;;-142.25;100.00;58004.16;5040220;28;20045;-71
2023/01/15 11:58:45;;;;;;;16.30;8.83;;;;;;;-142.25;100.00;58004.16;5040826;28;20103;-70
2023/01/15 12:01:30;;;;;;;13.27;9.53;;;;;;;-142.25;100.00;58004.16;5040240;28;20037;-70
2023/01/15 12:03:57;;;;;;;30.93;14.90;;;;;;;-142.25;100.00;58004.16;5037839;28;20145;-71
2023/01/15 12:06:25;;;;;;;20.10;9.53;;;;;;;-142.25;100.00;58004.16;5030462;28;20095;-71